Virgie Cenac — WDC2765 — position and weather

sailwx.info

Track history (hours):
 
Tides and Currents Weather Stations Pressure Air Temp Water Temp Dewpoint Dewpoint Depression Visibility Wind Speed Wind Dir Waves Ship Positions

Virgie Cenac

Owner: Cenac Marine Transportation, Inc., Houma, LA. More information available from US FCC via Universal Licensing System and Coast Guard Vessel Documentation Center.

Last reported at 2016-May-22 15:32 UTC. Time now 2016-May-29 05:54 UTC.
Position N 30°22' W 086°54'.

Length 18 m; draft 3 m.

Type: Towing. MMSI: 366997430.

Date/timePositionNaut miles runAvg speedWind from/ knotsBaromVisibWave heightAir tempDewpointWater temp
2016-May-22 15:32N 30°22' W 086°54'2 1.6
2016-May-22 14:33N 30°22' W 086°52'0 0.0
2016-May-22 13:24N 30°22' W 086°52'0 0.3
2016-May-22 12:33N 30°22' W 086°52'0 0.1
2016-May-22 11:33N 30°22' W 086°52'  
2016-May-19 12:33N 30°00' W 089°58'1 1.0
2016-May-19 11:10N 30°00' W 089°56'3 2.8
2016-May-19 10:09N 29°60' W 089°59'3 4.5
2016-May-19 09:33N 29°58' W 090°02'1 0.5
2016-May-19 08:33N 29°58' W 090°02'0 0.4
2016-May-19 07:33N 29°57' W 090°01'0 0.0
2016-May-19 06:33N 29°57' W 090°01'0 0.0
2016-May-19 05:33N 29°57' W 090°01'0 0.0
2016-May-19 04:33N 29°57' W 090°01'0 0.0
2016-May-19 03:33N 29°57' W 090°01'0 0.0
2016-May-19 02:33N 29°57' W 090°01'0 0.0
2016-May-19 01:33N 29°57' W 090°01'0 0.0
2016-May-19 00:33N 29°57' W 090°01'0 0.0
2016-May-18 23:33N 29°57' W 090°01'1 1.2
2016-May-18 22:33N 29°57' W 090°00'3 2.3
2016-May-18 21:27N 29°55' W 089°58'1 1.2
2016-May-18 20:29N 29°54' W 089°59'1 0.2
2016-May-18 15:25N 29°54' W 089°60'0 0.0
2016-May-18 14:13N 29°54' W 089°60'0 0.0
2016-May-18 12:19N 29°54' W 089°60'0 0.0
2016-May-18 09:31N 29°54' W 089°60'0 0.0
2016-May-18 03:28N 29°54' W 089°60'0 0.0
2016-May-18 02:31N 29°54' W 089°60'0 0.0
2016-May-18 01:33N 29°54' W 089°60'35 3.9
2016-May-17 16:33N 29°34' W 090°33'3 2.7
2016-May-17 15:33N 29°35' W 090°36'4 3.4
2016-May-17 14:29N 29°36' W 090°40'0 0.1
2016-May-17 13:33N 29°36' W 090°40'0 0.1
2016-May-17 12:33N 29°36' W 090°40'0 0.0
2016-May-17 11:33N 29°36' W 090°40'0 0.0
2016-May-17 10:33N 29°36' W 090°40'0 0.0
2016-May-17 09:33N 29°36' W 090°40'0 0.0
2016-May-17 08:33N 29°36' W 090°40'0 0.0
2016-May-17 07:34N 29°36' W 090°40'0 0.0
2016-May-17 06:33N 29°36' W 090°40'0 0.0
2016-May-17 05:33N 29°36' W 090°40'0 0.0
2016-May-17 04:33N 29°36' W 090°40'0 0.0
2016-May-17 03:33N 29°36' W 090°40'0 0.0
2016-May-17 02:33N 29°36' W 090°40'0 0.0
2016-May-17 01:33N 29°36' W 090°40'0 0.0
2016-May-17 00:33N 29°36' W 090°40'0 0.0
2016-May-16 23:33N 29°36' W 090°40'0 0.0
2016-May-16 22:33N 29°36' W 090°40'1 1.3
2016-May-16 21:28N 29°35' W 090°38'3 3.3
2016-May-16 20:33N 29°35' W 090°35'30 2.9
2016-May-16 10:12N 29°49' W 090°04'2 3.6
2016-May-16 09:33N 29°50' W 090°02'4 3.6
2016-May-16 08:33N 29°53' W 089°60'2 1.1
2016-May-16 06:34N 29°55' W 089°58'1 0.7
2016-May-16 05:30N 29°55' W 089°57'0 0.0
2016-May-15 13:33N 29°56' W 089°58'0 0.0
2016-May-15 09:32N 29°56' W 089°58'0 0.0
2016-May-15 08:34N 29°56' W 089°58'0 0.0
2016-May-15 07:32N 29°56' W 089°58'0 0.0
2016-May-15 06:33N 29°56' W 089°58'0 0.0
2016-May-14 23:31N 29°55' W 089°58'4 4.5
2016-May-14 22:33N 29°58' W 090°02'1 0.9
2016-May-14 21:34N 29°59' W 090°01'  
Track history (hours):
 
Tides and Currents Weather Stations Pressure Air Temp Water Temp Dewpoint Dewpoint Depression Visibility Wind Speed Wind Dir Waves Ship Positions

Virgie Cenac

Owner: Cenac Marine Transportation, Inc., Houma, LA. More information available from US FCC via Universal Licensing System and Coast Guard Vessel Documentation Center.

Last reported at 2016-May-22 15:32 UTC. Time now 2016-May-29 05:54 UTC.
Position N 30°22' W 086°54'.

Length 18 m; draft 3 m.

Type: Towing. MMSI: 366997430.

Date/timePositionNaut miles runAvg speedWind from/ knotsBaromVisibWave heightAir tempDewpointWater temp
2016-May-22 15:32N 30°22' W 086°54'2 1.6
2016-May-22 14:33N 30°22' W 086°52'0 0.0
2016-May-22 13:24N 30°22' W 086°52'0 0.3
2016-May-22 12:33N 30°22' W 086°52'0 0.1
2016-May-22 11:33N 30°22' W 086°52'  
2016-May-19 12:33N 30°00' W 089°58'1 1.0
2016-May-19 11:10N 30°00' W 089°56'3 2.8
2016-May-19 10:09N 29°60' W 089°59'3 4.5
2016-May-19 09:33N 29°58' W 090°02'1 0.5
2016-May-19 08:33N 29°58' W 090°02'0 0.4
2016-May-19 07:33N 29°57' W 090°01'0 0.0
2016-May-19 06:33N 29°57' W 090°01'0 0.0
2016-May-19 05:33N 29°57' W 090°01'0 0.0
2016-May-19 04:33N 29°57' W 090°01'0 0.0
2016-May-19 03:33N 29°57' W 090°01'0 0.0
2016-May-19 02:33N 29°57' W 090°01'0 0.0
2016-May-19 01:33N 29°57' W 090°01'0 0.0
2016-May-19 00:33N 29°57' W 090°01'0 0.0
2016-May-18 23:33N 29°57' W 090°01'1 1.2
2016-May-18 22:33N 29°57' W 090°00'3 2.3
2016-May-18 21:27N 29°55' W 089°58'1 1.2
2016-May-18 20:29N 29°54' W 089°59'1 0.2
2016-May-18 15:25N 29°54' W 089°60'0 0.0
2016-May-18 14:13N 29°54' W 089°60'0 0.0
2016-May-18 12:19N 29°54' W 089°60'0 0.0
2016-May-18 09:31N 29°54' W 089°60'0 0.0
2016-May-18 03:28N 29°54' W 089°60'0 0.0
2016-May-18 02:31N 29°54' W 089°60'0 0.0
2016-May-18 01:33N 29°54' W 089°60'35 3.9
2016-May-17 16:33N 29°34' W 090°33'3 2.7
2016-May-17 15:33N 29°35' W 090°36'4 3.4
2016-May-17 14:29N 29°36' W 090°40'0 0.1
2016-May-17 13:33N 29°36' W 090°40'0 0.1
2016-May-17 12:33N 29°36' W 090°40'0 0.0
2016-May-17 11:33N 29°36' W 090°40'0 0.0
2016-May-17 10:33N 29°36' W 090°40'0 0.0
2016-May-17 09:33N 29°36' W 090°40'0 0.0
2016-May-17 08:33N 29°36' W 090°40'0 0.0
2016-May-17 07:34N 29°36' W 090°40'0 0.0
2016-May-17 06:33N 29°36' W 090°40'0 0.0
2016-May-17 05:33N 29°36' W 090°40'0 0.0
2016-May-17 04:33N 29°36' W 090°40'0 0.0
2016-May-17 03:33N 29°36' W 090°40'0 0.0
2016-May-17 02:33N 29°36' W 090°40'0 0.0
2016-May-17 01:33N 29°36' W 090°40'0 0.0
2016-May-17 00:33N 29°36' W 090°40'0 0.0
2016-May-16 23:33N 29°36' W 090°40'0 0.0
2016-May-16 22:33N 29°36' W 090°40'1 1.3
2016-May-16 21:28N 29°35' W 090°38'3 3.3
2016-May-16 20:33N 29°35' W 090°35'30 2.9
2016-May-16 10:12N 29°49' W 090°04'2 3.6
2016-May-16 09:33N 29°50' W 090°02'4 3.6
2016-May-16 08:33N 29°53' W 089°60'2 1.1
2016-May-16 06:34N 29°55' W 089°58'1 0.7
2016-May-16 05:30N 29°55' W 089°57'0 0.0
2016-May-15 13:33N 29°56' W 089°58'0 0.0
2016-May-15 09:32N 29°56' W 089°58'0 0.0
2016-May-15 08:34N 29°56' W 089°58'0 0.0
2016-May-15 07:32N 29°56' W 089°58'0 0.0
2016-May-15 06:33N 29°56' W 089°58'0 0.0
2016-May-14 23:31N 29°55' W 089°58'4 4.5
2016-May-14 22:33N 29°58' W 090°02'1 0.9
2016-May-14 21:34N 29°59' W 090°01'  

Dump ship's entire track history